Time;durP1;ratioP1;P1;durP2;ratioP2;P2;SDS_P1;SDS_P2;PMS_P1;PMS_P2;Temp;Humidity;BMP_temperature;BMP_pressure;BME280_temperature;BME280_humidity;BME280_pressure;Samples;Min_cycle;Max_cycle;Signal;HPM_P1;HPM_P2
2022/02/08 09:24:38;;;;;;;6.88;1.80;;;;;;;2.68;76.58;98385.34;5063610;28;20032;-51
2022/02/08 09:29:41;;;;;;;4.05;1.98;;;;;;;2.92;75.50;98381.38;5097245;28;20055;-49
2022/02/08 09:32:28;;;;;;;8.75;3.28;;;;;;;3.06;76.78;98375.88;5094635;28;20040;-47
2022/02/08 09:34:55;;;;;;;5.70;2.65;;;;;;;3.06;74.15;98357.91;5094776;28;20432;-49
2022/02/08 09:37:21;;;;;;;9.43;2.75;;;;;;;3.22;74.17;98379.75;5096276;28;20050;-46
2022/02/08 09:39:50;;;;;;;3.83;2.47;;;;;;;3.35;75.14;98379.38;5097116;28;20040;-48
2022/02/08 09:42:17;;;;;;;7.60;2.63;;;;;;;3.42;74.53;98375.78;5097562;28;20040;-51
2022/02/08 09:44:42;;;;;;;12.55;2.45;;;;;;;3.54;74.55;98381.47;5094324;28;20032;-55
2022/02/08 09:47:13;;;;;;;5.97;2.13;;;;;;;3.46;72.39;98386.81;5095776;28;20044;-53
2022/02/08 09:49:44;;;;;;;6.60;2.45;;;;;;;3.43;72.14;98384.31;5104555;28;20457;-52
2022/02/08 09:52:11;;;;;;;3.92;2.20;;;;;;;3.45;72.31;98380.00;5091743;28;20511;-53
2022/02/08 09:54:36;;;;;;;2.97;2.05;;;;;;;3.25;71.50;98348.84;5087175;28;20032;-53
2022/02/08 09:57:03;;;;;;;5.68;2.15;;;;;;;3.44;73.18;98378.31;5106212;28;20036;-54
2022/02/08 09:59:28;;;;;;;4.72;2.40;;;;;;;3.43;72.48;98371.47;5107497;28;20043;-52
2022/02/08 10:01:56;;;;;;;3.85;2.22;;;;;;;3.59;72.25;98374.47;5094293;28;20395;-52
2022/02/08 10:04:23;;;;;;;7.63;2.90;;;;;;;3.64;72.26;98370.06;5086174;28;20458;-55
2022/02/08 10:06:48;;;;;;;6.05;2.97;;;;;;;3.47;71.20;98359.38;5079049;28;20043;-54
2022/02/08 10:09:14;;;;;;;6.43;3.00;;;;;;;3.50;71.04;98378.16;5069378;28;20036;-52
2022/02/08 10:22:32;;;;;;;6.35;2.03;;;;;;;3.57;71.30;98377.06;5070610;28;20048;-51
2022/02/08 10:25:09;;;;;;;6.43;3.00;;;;;;;3.41;71.24;98358.66;5084250;28;20068;-52
2022/02/08 10:27:42;;;;;;;5.47;2.20;;;;;;;3.48;71.20;98369.63;5066497;28;20141;-56
2022/02/08 10:38:21;;;;;;;6.47;2.67;;;;;;;3.49;71.27;98380.75;5052715;28;20037;-52
2022/02/08 10:40:47;;;;;;;5.85;2.50;;;;;;;3.35;71.08;98381.09;5058256;28;20502;-54
2022/02/08 10:43:18;;;;;;;5.85;2.58;;;;;;;3.35;71.69;98394.78;5065161;28;20146;-54
2022/02/08 10:45:44;;;;;;;8.93;3.22;;;;;;;3.40;71.58;98387.00;5078006;28;20032;-55
2022/02/08 10:48:18;;;;;;;4.65;2.08;;;;;;;3.38;71.24;98381.88;5082024;28;20231;-56
2022/02/08 10:50:51;;;;;;;7.65;3.10;;;;;;;3.41;71.97;98379.22;5078431;28;20036;-50
2022/02/08 10:53:19;;;;;;;4.75;3.25;;;;;;;3.58;71.86;98375.34;5071663;28;20049;-54
2022/02/08 11:03:29;;;;;;;6.45;2.90;;;;;;;3.52;71.39;98366.09;5080154;28;20033;-58
2022/02/08 11:08:48;;;;;;;6.30;2.88;;;;;;;3.60;71.29;98369.31;5063024;28;20098;-56
2022/02/08 11:14:46;;;;;;;7.55;3.10;;;;;;;3.61;71.03;98373.53;5078655;28;20063;-57
2022/02/08 11:19:53;;;;;;;7.75;3.40;;;;;;;3.61;71.71;98373.53;5064859;28;20528;-53
2022/02/08 11:25:16;;;;;;;7.55;2.92;;;;;;;3.60;71.10;98376.16;5054804;28;20036;-51
2022/02/08 11:27:49;;;;;;;9.13;3.00;;;;;;;3.64;71.52;98367.47;5055618;28;20045;-56
2022/02/08 11:30:53;;;;;;;6.78;2.40;;;;;;;3.60;71.14;98368.47;5065338;28;20040;-53
2022/02/08 11:47:19;;;;;;;11.25;2.97;;;;;;;3.61;70.87;98376.09;5051269;28;20098;-53
2022/02/08 11:55:27;;;;;;;7.35;3.38;;;;;;;3.91;70.81;98368.44;5077988;28;20067;-58
2022/02/08 12:00:44;;;;;;;7.63;2.60;;;;;;;4.17;70.23;98374.50;5070384;28;20131;-56
2022/02/08 12:06:04;;;;;;;8.35;3.10;;;;;;;3.90;69.96;98352.16;5067072;28;20043;-55
2022/02/08 12:08:27;;;;;;;6.15;2.75;;;;;;;4.01;70.30;98365.56;5066476;28;20068;-47
2022/02/08 12:11:09;;;;;;;4.43;2.58;;;;;;;3.85;70.27;98364.31;5021863;28;20064;-53
2022/02/08 12:30:57;;;;;;;3.80;2.67;;;;;;;3.50;70.84;98390.16;5073436;28;20044;-60
2022/02/08 12:33:25;;;;;;;5.60;2.80;;;;;;;3.52;71.18;98391.78;5084316;28;20590;-54
2022/02/08 12:36:10;;;;;;;5.13;2.78;;;;;;;3.56;71.49;98393.38;5081224;28;20036;-58
2022/02/08 12:58:08;;;;;;;7.40;2.75;;;;;;;3.33;72.53;98411.97;5070429;28;20094;-49
2022/02/08 14:03:51;;;;;;;3.15;1.55;;;;;;;2.50;72.13;98430.25;5062640;28;20134;-52
2022/02/08 14:06:47;;;;;;;1.27;0.73;;;;;;;2.49;72.59;98428.56;5046576;28;20037;-48
2022/02/08 14:20:04;;;;;;;4.53;1.88;;;;;;;2.42;73.54;98419.28;5069450;28;20109;-56
2022/02/08 14:25:29;;;;;;;2.90;1.60;;;;;;;2.43;73.37;98432.97;5051670;28;20033;-50
2022/02/08 15:08:12;;;;;;;7.68;3.65;;;;;;;2.05;80.61;98447.44;5006116;28;20046;-49
2022/02/08 15:10:51;;;;;;;4.85;2.65;;;;;;;2.04;80.88;98458.56;4986627;28;20558;-53
2022/02/08 15:13:21;;;;;;;7.80;2.53;;;;;;;1.96;81.96;98451.91;4989565;28;20133;-51
2022/02/08 15:18:13;;;;;;;6.07;2.85;;;;;;;1.84;83.03;98445.28;5020690;28;20046;-52
2022/02/08 15:20:39;;;;;;;4.80;2.88;;;;;;;1.95;83.83;98455.34;4972362;28;20081;-54
2022/02/08 15:23:08;;;;;;;5.55;3.08;;;;;;;1.91;83.87;98453.72;5006241;28;20046;-52
2022/02/08 15:25:35;;;;;;;5.10;2.80;;;;;;;1.89;84.03;98460.56;5006075;28;20065;-54
2022/02/08 15:28:03;;;;;;;4.75;2.25;;;;;;;1.82;84.83;98453.91;5022388;28;20045;-53
2022/02/08 15:30:31;;;;;;;2.72;1.48;;;;;;;1.77;85.09;98450.56;5025630;28;20490;-56
2022/02/08 15:32:58;;;;;;;6.82;2.85;;;;;;;1.75;85.21;98442.06;5025243;28;20100;-56
2022/02/08 15:35:24;;;;;;;8.13;3.08;;;;;;;1.85;85.08;98439.28;5013740;28;20049;-55
2022/02/08 15:37:51;;;;;;;5.45;2.95;;;;;;;1.86;85.88;98456.38;5081674;28;20050;-57
2022/02/08 15:40:20;;;;;;;9.25;3.33;;;;;;;1.73;86.92;98447.22;5118339;27;20050;-51
2022/02/08 15:42:49;;;;;;;7.72;3.13;;;;;;;1.64;88.04;98445.66;5129492;27;20072;-52
2022/02/08 15:45:35;;;;;;;8.95;2.90;;;;;;;1.73;88.60;98460.00;5094871;27;20038;-52
2022/02/08 15:48:02;;;;;;;8.15;1.90;;;;;;;1.57;90.47;98451.78;5100933;28;20574;-54
2022/02/08 15:50:45;;;;;;;5.72;2.60;;;;;;;1.56;91.24;98464.63;5112684;27;20049;-55
2022/02/08 15:56:25;;;;;;;5.78;2.70;;;;;;;1.60;92.18;98463.69;5130236;27;20042;-53
2022/02/08 16:07:02;;;;;;;5.18;2.35;;;;;;;1.30;92.80;98449.72;5100068;28;20195;-47
2022/02/08 16:24:55;;;;;;;4.93;2.50;;;;;;;1.24;94.45;98483.09;5093307;28;20040;-50
2022/02/08 16:27:34;;;;;;;5.30;2.15;;;;;;;1.26;94.00;98466.81;5064559;27;20133;-48
2022/02/08 16:32:56;;;;;;;5.32;2.05;;;;;;;1.27;92.81;98463.41;5111964;28;20039;-48
2022/02/08 16:47:16;;;;;;;2.22;1.80;;;;;;;1.19;91.40;98460.13;5110965;28;20083;-48
2022/02/08 16:49:39;;;;;;;5.38;1.40;;;;;;;1.15;91.67;98458.47;5090279;28;20434;-50
2022/02/08 16:57:18;;;;;;;2.75;1.20;;;;;;;1.16;91.06;98464.44;5110887;28;20063;-48
2022/02/08 16:59:45;;;;;;;4.10;1.75;;;;;;;1.11;91.40;98451.72;5078394;28;20071;-50
2022/02/08 17:02:17;;;;;;;3.53;1.73;;;;;;;1.20;91.42;98451.56;5110247;27;20426;-50
2022/02/08 17:04:43;;;;;;;3.38;1.98;;;;;;;1.30;90.84;98451.44;5096420;28;20043;-51
2022/02/08 17:07:09;;;;;;;4.32;1.92;;;;;;;1.33;90.55;98459.03;5115691;27;20055;-48
2022/02/08 17:09:48;;;;;;;2.45;1.50;;;;;;;1.28;90.24;98457.41;5059277;28;20039;-47
2022/02/08 17:17:45;;;;;;;2.60;1.33;;;;;;;1.36;88.98;98464.13;5093393;28;20039;-47
2022/02/08 17:49:45;;;;;;;1.70;1.23;;;;;;;1.78;86.10;98449.72;5093091;28;20502;-47
2022/02/08 17:52:11;;;;;;;1.83;1.20;;;;;;;1.74;84.56;98451.47;5092615;28;20035;-47
2022/02/08 17:54:38;;;;;;;3.05;1.38;;;;;;;1.70;85.18;98445.56;5092978;28;20031;-45
2022/02/08 17:57:04;;;;;;;1.95;1.10;;;;;;;1.63;84.85;98451.66;5076423;28;20108;-45
2022/02/08 17:59:32;;;;;;;2.38;1.00;;;;;;;1.54;83.81;98451.84;5090086;28;20048;-47
2022/02/08 18:01:58;;;;;;;2.20;1.40;;;;;;;1.45;84.20;98439.22;5090215;28;20100;-47
2022/02/08 18:04:25;;;;;;;3.17;1.30;;;;;;;1.45;83.63;98452.00;5103671;28;20036;-48
2022/02/08 18:06:51;;;;;;;2.75;1.10;;;;;;;1.38;82.96;98436.78;5086768;28;20036;-48
2022/02/08 18:09:19;;;;;;;2.63;0.98;;;;;;;1.41;82.39;98447.81;5090001;28;20044;-45
2022/02/08 18:11:46;;;;;;;3.13;1.40;;;;;;;1.44;82.29;98450.31;5061176;28;20048;-46
2022/02/08 18:14:19;;;;;;;1.35;0.80;;;;;;;1.52;82.19;98448.44;5089596;28;20084;-44
2022/02/08 18:16:52;;;;;;;5.55;0.93;;;;;;;1.49;81.78;98452.78;5088615;28;20097;-46
2022/02/08 18:19:23;;;;;;;2.20;1.10;;;;;;;1.44;81.79;98446.91;5082542;28;20414;-46
2022/02/08 18:21:57;;;;;;;2.90;1.00;;;;;;;1.47;82.31;98452.81;5056986;28;20063;-46
2022/02/08 18:24:44;;;;;;;0.77;0.50;;;;;;;1.35;81.43;98434.28;5090374;28;20047;-45
2022/02/08 18:27:29;;;;;;;2.95;1.02;;;;;;;1.45;81.57;98443.47;5089849;28;20090;-46
2022/02/08 19:03:43;;;;;;;1.98;0.50;;;;;;;1.00;79.12;98450.19;5091806;28;20086;-46
2022/02/08 19:08:54;;;;;;;1.92;0.80;;;;;;;1.00;79.15;98452.75;5113776;28;20079;-45
2022/02/08 19:22:07;;;;;;;1.48;0.80;;;;;;;1.03;77.13;98457.84;5095787;28;20038;-45
2022/02/08 19:24:34;;;;;;;0.90;0.70;;;;;;;1.01;76.54;98449.34;5107589;28;20039;-47
2022/02/08 19:27:02;;;;;;;1.27;0.60;;;;;;;0.96;76.29;98454.53;5129307;28;20073;-47
2022/02/08 19:29:33;;;;;;;1.33;0.95;;;;;;;0.84;76.51;98450.44;5075329;28;20046;-46
2022/02/08 19:32:01;;;;;;;2.55;0.88;;;;;;;0.82;76.83;98451.34;5110722;28;20462;-44
2022/02/08 19:34:28;;;;;;;2.47;0.65;;;;;;;0.76;76.46;98456.56;5112439;28;20081;-47
2022/02/08 19:36:57;;;;;;;2.75;1.02;;;;;;;0.80;76.61;98453.94;5083188;28;20031;-43
2022/02/08 19:39:24;;;;;;;2.28;0.63;;;;;;;0.82;76.80;98448.78;5111684;28;20487;-45
2022/02/08 19:41:51;;;;;;;1.33;0.80;;;;;;;0.84;76.70;98447.88;5078895;27;20475;-48
2022/02/08 19:44:18;;;;;;;3.22;0.63;;;;;;;0.77;76.34;98441.19;5098660;27;20051;-48
2022/02/08 19:46:46;;;;;;;1.17;0.63;;;;;;;0.82;76.79;98448.78;5108819;27;20532;-51
2022/02/08 19:49:13;;;;;;;0.95;0.60;;;;;;;0.87;76.75;98444.44;5098019;27;20198;-46
2022/02/08 19:51:41;;;;;;;1.00;0.68;;;;;;;0.90;77.13;98452.06;5114219;27;20104;-45
2022/02/08 19:54:11;;;;;;;1.73;1.00;;;;;;;0.95;76.70;98457.94;5116009;27;20031;-45
2022/02/08 19:56:47;;;;;;;1.63;0.80;;;;;;;0.99;76.53;98449.38;5082233;27;20100;-45
2022/02/08 19:59:20;;;;;;;3.20;0.85;;;;;;;0.99;76.84;98446.81;5119324;27;20425;-44
2022/02/08 20:01:52;;;;;;;2.80;0.90;;;;;;;1.05;76.86;98439.03;5134002;27;20434;-46
2022/02/08 20:04:21;;;;;;;2.58;0.90;;;;;;;1.05;76.14;98453.53;5087249;27;20073;-47
2022/02/08 20:06:48;;;;;;;2.28;1.10;;;;;;;1.00;76.55;98448.50;5115552;27;20035;-46
2022/02/08 20:09:16;;;;;;;2.85;0.90;;;;;;;1.11;76.51;98444.03;5085437;27;20151;-42
2022/02/08 20:11:43;;;;;;;2.75;0.82;;;;;;;1.15;76.25;98438.00;5098265;27;20042;-43
2022/02/08 20:14:10;;;;;;;0.68;0.40;;;;;;;1.09;75.79;98443.25;5113901;27;20422;-45
2022/02/08 20:16:37;;;;;;;1.80;0.50;;;;;;;1.07;76.04;98442.41;5114692;27;20091;-43
2022/02/08 20:19:04;;;;;;;2.17;0.82;;;;;;;1.00;76.18;98429.72;5094557;28;20501;-43
2022/02/08 20:21:32;;;;;;;2.25;0.80;;;;;;;1.14;76.52;98441.47;5130481;27;20079;-45
2022/02/08 20:24:03;;;;;;;0.85;0.60;;;;;;;0.96;75.90;98412.75;5115284;27;20047;-44
2022/02/08 20:26:46;;;;;;;1.15;0.60;;;;;;;1.08;76.14;98436.44;5115880;27;20031;-45
2022/02/08 20:29:21;;;;;;;1.33;0.70;;;;;;;1.06;76.05;98432.19;5100860;27;20035;-45
2022/02/08 20:31:48;;;;;;;4.68;0.80;;;;;;;1.03;76.11;98445.91;5094039;28;20340;-43
2022/02/08 20:34:18;;;;;;;2.35;1.05;;;;;;;1.18;76.21;98442.25;5098814;27;20574;-43
2022/02/08 20:36:45;;;;;;;2.35;1.02;;;;;;;1.24;75.91;98439.59;5080915;27;20043;-47
2022/02/08 20:39:12;;;;;;;2.80;1.25;;;;;;;1.20;75.79;98443.06;5114800;27;20560;-45
2022/02/08 20:41:39;;;;;;;2.30;0.82;;;;;;;1.11;75.64;98440.63;5134037;27;20047;-43
2022/02/08 20:44:10;;;;;;;3.50;1.00;;;;;;;1.12;75.10;98443.19;5133619;27;20084;-44
2022/02/08 20:46:37;;;;;;;5.03;0.90;;;;;;;1.10;75.08;98444.91;5114870;27;20116;-42
2022/02/08 20:49:04;;;;;;;2.33;1.35;;;;;;;1.17;74.96;98443.94;5094906;28;20084;-41
2022/02/08 20:51:30;;;;;;;2.25;1.10;;;;;;;1.10;74.75;98444.09;5098159;27;20456;-42
2022/02/08 20:53:59;;;;;;;1.20;0.60;;;;;;;0.99;74.35;98430.63;5115647;27;20039;-44
2022/02/08 20:56:27;;;;;;;1.17;0.70;;;;;;;0.96;74.42;98461.34;5110308;28;20122;-50
2022/02/08 21:01:28;;;;;;;1.67;0.80;;;;;;;1.00;74.48;98451.06;5107933;27;20065;-41
2022/02/08 21:04:00;;;;;;;1.85;1.00;;;;;;;0.96;74.17;98448.56;5149859;27;20148;-42
2022/02/08 21:06:30;;;;;;;1.40;0.65;;;;;;;0.94;74.29;98453.72;5115092;27;20031;-40
2022/02/08 21:08:58;;;;;;;1.02;0.80;;;;;;;0.95;74.29;98462.22;5096852;27;20124;-44
2022/02/08 21:11:33;;;;;;;2.33;0.70;;;;;;;0.87;74.49;98453.84;5063318;27;20031;-42
2022/02/08 21:14:05;;;;;;;1.35;0.70;;;;;;;0.83;75.11;98448.78;5114911;27;20125;-44
2022/02/08 21:16:44;;;;;;;1.77;0.80;;;;;;;0.84;74.66;98453.00;5133119;27;20043;-42
2022/02/08 21:19:13;;;;;;;0.73;0.40;;;;;;;0.84;74.96;98453.00;5115971;27;20054;-43
2022/02/08 21:21:39;;;;;;;4.13;0.90;;;;;;;0.83;74.91;98451.34;5133274;27;20287;-42
2022/02/08 21:24:05;;;;;;;2.80;0.90;;;;;;;0.87;75.03;98459.81;5114401;27;20031;-43
2022/02/08 21:26:38;;;;;;;1.50;0.80;;;;;;;0.83;74.47;98456.47;5079808;27;20505;-45
2022/02/08 21:43:33;;;;;;;1.50;0.93;;;;;;;0.77;74.54;98464.22;5088492;27;20041;-46
2022/02/08 21:51:26;;;;;;;1.27;0.77;;;;;;;0.82;74.06;98462.44;5114380;27;20533;-42
2022/02/08 21:53:55;;;;;;;1.95;0.90;;;;;;;0.74;73.83;98458.28;5081248;27;20046;-44
2022/02/08 21:56:20;;;;;;;2.42;0.93;;;;;;;0.79;73.98;98456.50;5080283;27;20031;-45
2022/02/08 21:58:46;;;;;;;2.97;1.02;;;;;;;0.84;74.00;98458.13;5076410;28;20069;-44
2022/02/08 22:01:13;;;;;;;1.73;1.48;;;;;;;0.82;73.62;98462.44;5109244;28;20068;-45
2022/02/08 22:03:40;;;;;;;3.00;0.82;;;;;;;0.82;73.47;98464.16;5077772;27;20039;-45
2022/02/08 22:06:06;;;;;;;6.05;1.02;;;;;;;0.87;73.48;98464.91;5063104;27;20038;-43
2022/02/08 22:18:50;;;;;;;2.08;0.70;;;;;;;0.77;72.12;98453.13;5105649;27;20079;-43
2022/02/08 22:24:21;;;;;;;0.93;0.60;;;;;;;0.81;71.13;98460.75;5127714;27;20043;-42
2022/02/08 22:32:16;;;;;;;1.52;0.70;;;;;;;0.90;70.99;98466.56;5097524;27;20060;-42
2022/02/08 22:37:17;;;;;;;5.47;0.70;;;;;;;0.93;70.38;98463.97;5130945;27;20046;-43
2022/02/08 22:42:15;;;;;;;1.00;0.50;;;;;;;0.97;69.66;98469.03;5112629;27;20083;-44
2022/02/08 22:44:47;;;;;;;1.65;0.68;;;;;;;1.00;69.54;98465.56;5079725;27;20196;-43
2022/02/08 22:47:13;;;;;;;2.15;0.60;;;;;;;1.03;69.38;98468.94;5093683;28;20042;-43
2022/02/08 22:49:39;;;;;;;1.83;0.68;;;;;;;1.01;69.17;98478.34;5093094;28;20434;-42
2022/02/08 22:52:23;;;;;;;1.05;0.70;;;;;;;0.97;68.79;98479.25;5115698;28;20096;-41
2022/02/08 22:54:49;;;;;;;0.93;0.60;;;;;;;0.88;68.85;98479.41;5096732;28;20051;-46
2022/02/08 22:57:16;;;;;;;1.40;0.75;;;;;;;0.83;69.06;98471.81;5112682;28;20376;-42
2022/02/08 22:59:42;;;;;;;0.60;0.40;;;;;;;0.88;68.46;98481.13;5079254;28;20074;-42
2022/02/08 23:02:09;;;;;;;0.73;0.50;;;;;;;0.88;68.43;98489.63;5095323;28;20091;-43
2022/02/08 23:04:37;;;;;;;0.55;0.50;;;;;;;0.81;68.40;98481.19;5096566;28;20050;-43
2022/02/08 23:07:04;;;;;;;0.68;0.40;;;;;;;0.79;68.46;98485.47;5113044;28;20171;-42
2022/02/08 23:14:26;;;;;;;1.42;0.45;;;;;;;0.75;67.83;98470.19;5113169;28;20471;-43
2022/02/08 23:38:38;;;;;;;1.20;0.47;;;;;;;0.60;66.33;98486.63;5116445;27;20050;-43
2022/02/08 23:41:04;;;;;;;0.98;0.50;;;;;;;0.61;66.52;98485.75;5096185;28;20044;-42
2022/02/08 23:43:33;;;;;;;0.63;0.30;;;;;;;0.54;66.54;98491.81;5079507;28;20046;-42
2022/02/08 23:45:58;;;;;;;0.70;0.22;;;;;;;0.58;66.90;98490.91;5114833;28;20625;-41
2022/02/08 23:48:31;;;;;;;1.60;0.57;;;;;;;0.58;66.69;98488.34;5132776;27;20125;-41
2022/02/08 23:51:06;;;;;;;0.50;0.30;;;;;;;0.70;66.77;98489.88;5134075;27;20043;-42
2022/02/08 23:53:42;;;;;;;0.82;0.50;;;;;;;0.69;66.60;98481.38;5134350;27;20054;-41
2022/02/08 23:56:12;;;;;;;0.45;0.30;;;;;;;0.68;66.51;98483.97;5115942;27;20467;-41
2022/02/08 23:58:58;;;;;;;1.10;0.50;;;;;;;0.69;66.35;98491.59;5134243;27;20066;-42
